createdAt,value
2019-02-21T00:00:35.320Z,491.07
2019-02-21T00:03:04.176Z,534.23
2019-02-21T00:05:33.252Z,522.70
2019-02-21T00:08:02.112Z,472.10
2019-02-21T00:10:30.955Z,409.43
2019-02-21T00:12:59.855Z,353.57
2019-02-21T00:15:28.704Z,316.33
2019-02-21T00:17:57.572Z,328.37
2019-02-21T00:20:26.453Z,301.37
2019-02-21T00:22:55.317Z,290.37
2019-02-21T00:25:24.164Z,279.67
2019-02-21T00:27:53.067Z,297.37
2019-02-21T00:30:21.935Z,317.07
2019-02-21T00:32:50.780Z,298.27
2019-02-21T00:35:19.968Z,270.97
2019-02-21T00:37:48.789Z,285.70
2019-02-21T00:40:17.690Z,295.57
2019-02-21T00:42:46.564Z,263.70
2019-02-21T00:45:15.433Z,262.37
2019-02-21T00:47:44.295Z,283.23
2019-02-21T00:50:13.176Z,304.33
2019-02-21T00:52:42.023Z,281.57
2019-02-21T00:55:10.856Z,311.53
2019-02-21T00:57:39.776Z,313.47
2019-02-21T01:00:12.008Z,310.27
2019-02-21T01:02:40.869Z,300.10
2019-02-21T01:05:09.760Z,307.47
2019-02-21T01:07:38.606Z,269.13
2019-02-21T01:10:08.253Z,290.47
2019-02-21T01:12:37.134Z,261.93
2019-02-21T01:15:08.605Z,262.87
2019-02-21T01:17:37.473Z,307.33
2019-02-21T01:20:07.095Z,353.13
2019-02-21T01:22:35.955Z,266.53
2019-02-21T01:25:06.495Z,253.37
2019-02-21T01:27:35.384Z,268.93
2019-02-21T01:30:04.934Z,424.90
2019-02-21T01:32:33.801Z,343.37
2019-02-21T01:35:03.031Z,272.67
2019-02-21T01:37:31.917Z,299.33
2019-02-21T01:40:00.771Z,278.87
2019-02-21T01:42:29.721Z,240.10
2019-02-21T01:44:58.567Z,302.70
2019-02-21T01:47:27.599Z,268.53
2019-02-21T01:49:56.557Z,352.33
2019-02-21T01:52:25.434Z,457.83
2019-02-21T01:54:54.267Z,472.77
2019-02-21T01:57:23.167Z,438.90
2019-02-21T01:59:52.004Z,259.73
2019-02-21T02:02:20.903Z,353.93
2019-02-21T02:04:49.759Z,424.00
2019-02-21T02:07:18.611Z,424.77
2019-02-21T02:09:47.498Z,377.13
2019-02-21T02:12:16.347Z,332.00
2019-02-21T02:14:45.187Z,240.07
2019-02-21T02:17:14.090Z,225.43
2019-02-21T02:19:42.950Z,226.83
2019-02-21T02:22:11.773Z,217.13
2019-02-21T02:24:40.700Z,220.03
2019-02-21T02:27:09.560Z,218.50
2019-02-21T02:29:38.390Z,194.73
2019-02-21T02:32:09.532Z,192.43
2019-02-21T02:34:37.782Z,172.87
2019-02-21T02:37:06.623Z,192.07
2019-02-21T02:39:35.511Z,170.77
2019-02-21T02:42:04.363Z,183.43
2019-02-21T02:44:33.221Z,183.63
2019-02-21T02:47:02.100Z,158.67
2019-02-21T02:49:30.950Z,175.33
2019-02-21T02:51:59.776Z,161.03
2019-02-21T02:54:28.733Z,164.50
2019-02-21T02:56:57.640Z,206.40
2019-02-21T02:59:26.470Z,220.57
2019-02-21T03:01:55.374Z,188.53
2019-02-21T03:04:24.282Z,161.60
2019-02-21T03:06:53.185Z,190.40
2019-02-21T03:09:22.111Z,183.37
2019-02-21T03:11:51.919Z,177.40
2019-02-21T03:14:21.115Z,185.93
2019-02-21T03:16:49.985Z,185.30
2019-02-21T03:19:18.836Z,180.57
2019-02-21T03:21:47.691Z,179.73
2019-02-21T03:24:16.566Z,182.10
2019-02-21T03:26:45.422Z,193.83
2019-02-21T03:29:14.260Z,152.13
2019-02-21T03:31:54.320Z,137.43
2019-02-21T03:34:13.690Z,153.07
2019-02-21T03:36:42.534Z,178.93
2019-02-21T03:39:11.445Z,211.40
2019-02-21T03:41:40.602Z,233.87
2019-02-21T03:44:09.461Z,279.63
2019-02-21T03:46:38.352Z,191.43
2019-02-21T03:49:07.195Z,167.27
2019-02-21T03:51:36.033Z,169.13
2019-02-21T03:54:04.948Z,169.50
2019-02-21T03:56:33.808Z,154.33
2019-02-21T03:59:02.664Z,160.80
2019-02-21T04:01:31.584Z,170.40
2019-02-21T04:04:00.421Z,160.23
2019-02-21T04:06:29.262Z,173.43
2019-02-21T04:08:58.145Z,156.27
2019-02-21T04:11:27.004Z,160.43
2019-02-21T04:13:55.854Z,150.30
2019-02-21T04:16:24.749Z,151.97
2019-02-21T04:18:53.602Z,150.03
2019-02-21T04:21:22.442Z,136.63
2019-02-21T04:23:51.352Z,130.63
2019-02-21T04:26:20.181Z,122.43
2019-02-21T04:28:49.030Z,137.70
2019-02-21T04:31:17.929Z,142.27
2019-02-21T04:33:46.775Z,145.20
2019-02-21T04:36:15.619Z,156.47
2019-02-21T04:38:44.528Z,161.70
2019-02-21T04:41:13.375Z,171.37
2019-02-21T04:43:43.120Z,170.10
2019-02-21T04:46:12.002Z,174.33
2019-02-21T04:48:40.858Z,181.70
2019-02-21T04:51:09.711Z,168.77
2019-02-21T04:53:38.581Z,141.17
2019-02-21T04:56:07.418Z,154.03
2019-02-21T04:58:36.250Z,160.47
2019-02-21T05:01:05.158Z,152.77
2019-02-21T05:03:34.018Z,151.80
2019-02-21T05:06:02.865Z,151.00
2019-02-21T05:08:31.771Z,140.87
2019-02-21T05:11:00.619Z,139.97
2019-02-21T05:13:29.483Z,144.63
2019-02-21T05:15:58.381Z,156.30
2019-02-21T05:18:27.239Z,165.13
2019-02-21T05:20:56.088Z,160.07
2019-02-21T05:23:24.972Z,146.63
2019-02-21T05:25:53.819Z,147.47
2019-02-21T05:28:32.408Z,193.00
2019-02-21T05:31:02.828Z,247.73
2019-02-21T05:33:42.511Z,283.13
2019-02-21T05:36:21.958Z,243.53
2019-02-21T05:38:52.467Z,246.97
2019-02-21T05:41:28.854Z,297.57
2019-02-21T05:44:05.221Z,235.07
2019-02-21T05:46:44.644Z,204.30
2019-02-21T05:49:15.103Z,216.93
2019-02-21T05:51:48.597Z,213.63
2019-02-21T05:54:19.126Z,229.90
2019-02-21T05:56:52.735Z,236.43
2019-02-21T05:59:35.337Z,252.13
2019-02-21T06:02:08.505Z,234.60
2019-02-21T06:04:39.061Z,258.10
2019-02-21T06:07:12.351Z,231.27
2019-02-21T06:09:45.755Z,214.50
2019-02-21T06:12:33.980Z,235.43
2019-02-21T06:15:21.724Z,226.63
2019-02-21T06:17:52.233Z,255.40
2019-02-21T06:20:33.681Z,279.93
2019-02-21T06:23:10.310Z,287.30
2019-02-21T06:25:50.815Z,307.57
2019-02-21T06:28:13.108Z,261.13
2019-02-21T06:30:43.635Z,199.83
2019-02-21T06:33:12.527Z,226.00
2019-02-21T06:35:41.419Z,253.57
2019-02-21T06:38:10.394Z,316.70
2019-02-21T06:40:39.403Z,290.07
2019-02-21T06:43:14.651Z,326.67
2019-02-21T06:45:43.640Z,239.37
2019-02-21T06:48:12.520Z,242.53
2019-02-21T06:50:41.333Z,218.17
2019-02-21T06:53:10.228Z,266.17
2019-02-21T06:55:39.101Z,294.63
2019-02-21T06:58:07.961Z,299.43
2019-02-21T07:00:37.463Z,341.73
2019-02-21T07:03:15.358Z,305.73
2019-02-21T07:05:37.053Z,360.10
2019-02-21T07:08:05.997Z,354.87
2019-02-21T07:10:34.864Z,380.73
2019-02-21T07:13:03.670Z,355.00
2019-02-21T07:15:32.524Z,335.37
2019-02-21T07:18:01.425Z,305.70
2019-02-21T07:20:30.274Z,302.87
2019-02-21T07:22:59.146Z,278.10
2019-02-21T07:25:32.583Z,230.80
2019-02-21T07:28:11.378Z,292.83
2019-02-21T07:30:32.171Z,221.13
2019-02-21T07:33:01.017Z,239.90
2019-02-21T07:35:29.884Z,270.50
2019-02-21T07:37:58.759Z,362.70
2019-02-21T07:40:27.593Z,402.33
2019-02-21T07:42:58.594Z,392.83
2019-02-21T07:45:27.000Z,385.90
2019-02-21T07:47:55.954Z,429.60
2019-02-21T07:50:24.797Z,397.67
2019-02-21T07:53:01.916Z,418.67
2019-02-21T07:55:24.224Z,338.80
2019-02-21T07:57:53.087Z,273.40
2019-02-21T08:00:21.999Z,221.50
2019-02-21T08:02:50.867Z,204.83
2019-02-21T08:05:19.709Z,222.80
2019-02-21T08:07:49.876Z,226.37
2019-02-21T08:10:21.125Z,234.10
2019-02-21T08:12:53.479Z,313.53
2019-02-21T08:15:22.187Z,315.57
2019-02-21T08:17:51.066Z,282.57
2019-02-21T08:20:19.923Z,270.63
2019-02-21T08:22:48.821Z,214.57
2019-02-21T08:25:19.243Z,212.33
2019-02-21T08:27:48.148Z,191.47
2019-02-21T08:30:17.151Z,189.10
2019-02-21T08:33:04.092Z,186.87
2019-02-21T08:35:32.997Z,180.07
2019-02-21T08:38:01.866Z,168.20
2019-02-21T08:40:30.708Z,157.73
2019-02-21T08:42:59.616Z,155.50
2019-02-21T08:45:28.494Z,133.37
2019-02-21T08:47:57.331Z,127.63
2019-02-21T08:50:26.235Z,126.50
2019-02-21T08:52:55.118Z,121.67
2019-02-21T08:55:24.049Z,134.13
2019-02-21T08:57:52.960Z,130.07
2019-02-21T09:00:21.821Z,129.37
2019-02-21T09:02:50.673Z,132.13
2019-02-21T09:05:21.051Z,97.60
2019-02-21T09:07:49.928Z,148.63
2019-02-21T09:10:18.756Z,111.23
2019-02-21T09:12:48.641Z,147.47
2019-02-21T09:15:18.015Z,112.00
2019-02-21T09:17:46.874Z,146.53
2019-02-21T09:20:15.830Z,124.63
2019-02-21T09:22:44.696Z,148.00
2019-02-21T09:25:14.463Z,151.17
2019-02-21T09:27:43.356Z,141.00
2019-02-21T09:30:16.927Z,138.57
2019-02-21T09:32:45.796Z,130.10
2019-02-21T09:35:14.704Z,128.20
2019-02-21T09:37:43.551Z,126.77
2019-02-21T09:40:16.457Z,127.03
2019-02-21T09:42:45.409Z,145.13
2019-02-21T09:45:17.209Z,154.17
2019-02-21T09:47:46.071Z,159.77
2019-02-21T09:50:15.059Z,170.73
2019-02-21T09:52:43.925Z,167.47
2019-02-21T09:55:15.487Z,167.83
2019-02-21T09:57:44.461Z,170.67
2019-02-21T10:00:18.433Z,152.70
2019-02-21T10:02:47.293Z,157.70
2019-02-21T10:05:16.219Z,150.73
2019-02-21T10:07:45.074Z,149.40
2019-02-21T10:10:19.172Z,138.20
2019-02-21T10:12:48.058Z,99.23
2019-02-21T10:15:17.533Z,135.67
2019-02-21T10:17:46.360Z,119.57
2019-02-21T10:20:20.481Z,127.37
2019-02-21T10:22:49.323Z,132.00
2019-02-21T10:25:22.989Z,120.07
2019-02-21T10:27:51.155Z,119.10
2019-02-21T10:30:21.984Z,108.07
2019-02-21T10:32:50.930Z,90.97
2019-02-21T10:35:19.825Z,70.70
2019-02-21T10:37:48.760Z,66.50
2019-02-21T10:40:17.805Z,45.97
2019-02-21T10:42:46.824Z,55.37
2019-02-21T10:45:17.796Z,52.77
2019-02-21T10:47:46.639Z,53.70
2019-02-21T10:50:18.009Z,49.87
2019-02-21T10:52:46.846Z,49.43
2019-02-21T10:55:16.205Z,63.00
2019-02-21T10:57:45.630Z,55.10
2019-02-21T11:00:20.732Z,61.00
2019-02-21T11:02:49.744Z,54.93
2019-02-21T11:05:18.603Z,55.23
2019-02-21T11:07:47.443Z,55.30
2019-02-21T11:10:19.479Z,50.07
2019-02-21T11:12:48.433Z,43.70
2019-02-21T11:15:19.092Z,40.60
2019-02-21T11:17:47.970Z,43.33
2019-02-21T11:20:18.319Z,59.00
2019-02-21T11:22:47.175Z,55.43
2019-02-21T11:25:16.096Z,48.77
2019-02-21T11:27:44.962Z,50.50
2019-02-21T11:30:16.299Z,47.53
2019-02-21T11:32:45.187Z,51.83
2019-02-21T11:35:15.498Z,41.00
2019-02-21T11:37:46.760Z,40.23
2019-02-21T11:40:17.083Z,37.67
2019-02-21T11:42:46.083Z,41.30
2019-02-21T11:45:19.628Z,42.93
2019-02-21T11:47:48.537Z,46.90
2019-02-21T11:50:18.585Z,39.90
2019-02-21T11:52:47.525Z,39.47
2019-02-21T11:55:22.353Z,32.80
2019-02-21T11:57:51.197Z,49.10
2019-02-21T12:00:25.533Z,40.97
2019-02-21T12:02:54.426Z,38.70
2019-02-21T12:05:31.934Z,46.60
2019-02-21T12:07:54.457Z,39.47
2019-02-21T12:10:23.368Z,40.07
2019-02-21T12:12:52.210Z,35.47
2019-02-21T12:15:21.154Z,41.77
2019-02-21T12:17:50.075Z,38.43
2019-02-21T12:20:19.709Z,33.10
2019-02-21T12:22:48.572Z,30.17
2019-02-21T12:25:19.923Z,32.73
2019-02-21T12:27:49.153Z,42.77
2019-02-21T12:30:19.354Z,36.40
2019-02-21T12:32:48.347Z,37.67
2019-02-21T12:35:28.776Z,32.97
2019-02-21T12:37:47.651Z,34.33
2019-02-21T12:40:23.263Z,37.63
2019-02-21T12:42:52.123Z,32.37
2019-02-21T12:45:25.824Z,38.53
2019-02-21T12:47:54.742Z,40.50
2019-02-21T12:50:23.654Z,50.60
2019-02-21T12:52:52.531Z,35.30
2019-02-21T12:55:28.183Z,40.70
2019-02-21T12:57:51.927Z,37.77
2019-02-21T13:00:23.476Z,42.37
2019-02-21T13:02:52.406Z,39.80
2019-02-21T13:05:21.253Z,34.73
2019-02-21T13:07:50.212Z,37.27
2019-02-21T13:10:21.266Z,42.73
2019-02-21T13:12:50.127Z,38.37
2019-02-21T13:15:18.989Z,47.73
2019-02-21T13:17:47.888Z,43.73
2019-02-21T13:20:17.670Z,42.27
2019-02-21T13:22:46.535Z,42.27
2019-02-21T13:25:17.485Z,56.20
2019-02-21T13:27:46.317Z,46.60
2019-02-21T13:30:19.202Z,50.87
2019-02-21T13:32:48.057Z,47.20
2019-02-21T13:35:16.909Z,54.60
2019-02-21T13:37:45.798Z,66.33
2019-02-21T13:40:16.498Z,54.53
2019-02-21T13:42:57.547Z,51.33
2019-02-21T13:45:26.404Z,50.30
2019-02-21T13:47:55.238Z,53.30
2019-02-21T13:50:24.235Z,43.83
2019-02-21T13:52:53.074Z,44.00
2019-02-21T13:55:21.923Z,41.63
2019-02-21T13:57:50.818Z,44.60
2019-02-21T14:00:21.827Z,53.13
2019-02-21T14:02:50.666Z,58.40
2019-02-21T14:05:19.844Z,60.40
2019-02-21T14:07:48.685Z,45.70
2019-02-21T14:10:17.532Z,43.50
2019-02-21T14:12:46.446Z,45.83
2019-02-21T14:15:21.165Z,50.37
2019-02-21T14:17:50.059Z,46.37
2019-02-21T14:20:18.883Z,46.17
2019-02-21T14:22:47.775Z,47.63
2019-02-21T14:25:16.620Z,38.70
2019-02-21T14:27:45.472Z,43.83
2019-02-21T14:30:18.826Z,52.80
2019-02-21T14:32:47.841Z,61.03
2019-02-21T14:35:17.103Z,44.37
2019-02-21T14:37:45.941Z,67.23
2019-02-21T14:40:15.870Z,51.70
2019-02-21T14:42:44.688Z,45.70
2019-02-21T14:45:21.019Z,39.03
2019-02-21T14:47:49.886Z,40.10
2019-02-21T14:50:18.749Z,35.77
2019-02-21T14:52:47.638Z,39.67
2019-02-21T14:55:17.567Z,32.93
2019-02-21T14:57:46.518Z,40.87
2019-02-21T15:00:22.994Z,25.77
2019-02-21T15:02:51.860Z,33.03
2019-02-21T15:05:21.077Z,38.73
2019-02-21T15:07:50.132Z,40.17
2019-02-21T15:10:18.960Z,40.93
2019-02-21T15:12:47.899Z,47.30
2019-02-21T15:15:21.755Z,39.37
2019-02-21T15:17:49.686Z,40.13
2019-02-21T15:20:18.537Z,36.50
2019-02-21T15:22:47.460Z,28.90
2019-02-21T15:25:16.268Z,38.53
2019-02-21T15:27:45.129Z,22.77
2019-02-21T15:30:19.855Z,23.03
2019-02-21T15:32:49.220Z,24.07
2019-02-21T15:35:19.430Z,26.27
2019-02-21T15:37:48.602Z,30.37
2019-02-21T15:40:17.458Z,28.90
2019-02-21T15:42:46.305Z,22.97
2019-02-21T15:45:29.111Z,25.70
2019-02-21T15:47:57.964Z,28.87
2019-02-21T15:50:26.816Z,57.13
2019-02-21T15:52:57.039Z,31.67
2019-02-21T15:55:25.917Z,58.60
2019-02-21T15:58:03.324Z,33.93
2019-02-21T16:00:25.681Z,29.10
2019-02-21T16:02:54.528Z,81.10
2019-02-21T16:05:23.393Z,119.77
2019-02-21T16:07:52.308Z,174.30
2019-02-21T16:10:26.871Z,225.40
2019-02-21T16:12:56.419Z,234.17
2019-02-21T16:15:25.737Z,241.23
2019-02-21T16:17:54.576Z,248.00
2019-02-21T16:20:23.423Z,210.37
2019-02-21T16:22:52.346Z,255.00
2019-02-21T16:25:26.858Z,267.17
2019-02-21T16:27:55.857Z,249.03
2019-02-21T16:30:24.807Z,243.70
2019-02-21T16:32:53.640Z,228.67
2019-02-21T16:35:22.490Z,230.40
2019-02-21T16:37:51.407Z,232.27
2019-02-21T16:40:20.677Z,233.57
2019-02-21T16:42:49.519Z,295.33
2019-02-21T16:45:20.147Z,317.87
2019-02-21T16:47:48.988Z,288.87
2019-02-21T16:50:28.779Z,306.37
2019-02-21T16:52:48.415Z,326.83
2019-02-21T16:55:24.901Z,352.30
2019-02-21T16:58:13.485Z,372.13
2019-02-21T17:00:51.324Z,446.43
2019-02-21T17:03:12.878Z,440.20
2019-02-21T17:05:41.708Z,414.97
2019-02-21T17:08:10.616Z,396.23
2019-02-21T17:10:39.547Z,426.97
2019-02-21T17:13:08.444Z,403.03
2019-02-21T17:15:37.276Z,429.83
2019-02-21T17:18:06.178Z,308.50
2019-02-21T17:20:34.992Z,348.23
2019-02-21T17:23:03.830Z,421.03
2019-02-21T17:25:32.756Z,407.03
2019-02-21T17:28:01.559Z,380.63
2019-02-21T17:30:30.376Z,392.73
2019-02-21T17:32:59.264Z,417.07
2019-02-21T17:35:28.090Z,426.87
2019-02-21T17:37:56.957Z,483.53
2019-02-21T17:40:26.358Z,473.00
2019-02-21T17:42:55.230Z,475.87
2019-02-21T17:45:24.064Z,453.53
2019-02-21T17:47:52.986Z,479.80
2019-02-21T17:50:21.829Z,432.60
2019-02-21T17:52:50.666Z,384.70
2019-02-21T17:55:19.655Z,395.93
2019-02-21T17:57:49.758Z,460.73
2019-02-21T18:00:22.627Z,454.10
2019-02-21T18:02:51.554Z,465.13
2019-02-21T18:05:20.403Z,456.60
2019-02-21T18:07:49.251Z,530.87
2019-02-21T18:10:19.020Z,535.23
2019-02-21T18:12:47.906Z,511.97
2019-02-21T18:15:17.884Z,450.20
2019-02-21T18:17:46.770Z,394.47
2019-02-21T18:20:16.256Z,393.60
2019-02-21T18:22:45.685Z,384.30
2019-02-21T18:25:36.074Z,366.30
2019-02-21T18:28:04.915Z,375.80
2019-02-21T18:30:33.763Z,405.57
2019-02-21T18:33:02.684Z,406.57
2019-02-21T18:35:31.516Z,330.40
2019-02-21T18:38:00.384Z,339.57
2019-02-21T18:40:29.686Z,319.70
2019-02-21T18:42:58.509Z,327.40
2019-02-21T18:45:27.464Z,348.83
2019-02-21T18:47:56.474Z,388.23
2019-02-21T18:50:25.393Z,402.80
2019-02-21T18:52:57.527Z,425.40
2019-02-21T18:55:26.417Z,432.20
2019-02-21T18:57:55.371Z,460.40
2019-02-21T19:00:26.172Z,487.60
2019-02-21T19:02:55.252Z,515.47
2019-02-21T19:05:34.964Z,527.50
2019-02-21T19:08:00.871Z,522.00
2019-02-21T19:10:25.452Z,505.73
2019-02-21T19:12:54.300Z,495.33
2019-02-21T19:15:23.558Z,438.67
2019-02-21T19:17:52.477Z,410.53
2019-02-21T19:20:22.418Z,412.37
2019-02-21T19:22:51.273Z,397.23
2019-02-21T19:25:20.169Z,474.63
2019-02-21T19:27:49.014Z,463.17
2019-02-21T19:30:41.910Z,463.50
2019-02-21T19:33:10.753Z,456.30
2019-02-21T19:35:39.582Z,453.40
2019-02-21T19:38:10.803Z,372.80
2019-02-21T19:40:39.058Z,377.17
2019-02-21T19:43:07.899Z,395.13
2019-02-21T19:45:36.903Z,421.10
2019-02-21T19:48:05.759Z,416.10
2019-02-21T19:50:34.712Z,378.27
2019-02-21T19:53:03.621Z,374.70
2019-02-21T19:55:32.476Z,344.80
2019-02-21T19:58:01.386Z,309.30
2019-02-21T20:00:31.921Z,357.07
2019-02-21T20:03:01.205Z,359.57
2019-02-21T20:05:30.221Z,371.20
2019-02-21T20:08:08.264Z,378.17
2019-02-21T20:10:29.718Z,367.53
2019-02-21T20:13:03.025Z,363.80
2019-02-21T20:15:31.947Z,422.17
2019-02-21T20:18:00.821Z,374.80
2019-02-21T20:20:29.656Z,415.97
2019-02-21T20:22:58.554Z,433.60
2019-02-21T20:25:27.444Z,433.43
2019-02-21T20:27:56.316Z,424.10
2019-02-21T20:30:26.895Z,428.03
2019-02-21T20:32:55.745Z,440.80
2019-02-21T20:35:24.594Z,401.13
2019-02-21T20:37:53.588Z,368.73
2019-02-21T20:40:22.454Z,290.50
2019-02-21T20:42:51.325Z,301.60
2019-02-21T20:45:20.234Z,324.33
2019-02-21T20:47:49.104Z,294.57
2019-02-21T20:50:18.244Z,305.40
2019-02-21T20:52:47.138Z,313.23
2019-02-21T20:55:16.483Z,330.97
2019-02-21T20:57:45.348Z,338.53
2019-02-21T21:00:16.820Z,352.33
2019-02-21T21:02:45.656Z,351.40
2019-02-21T21:05:14.933Z,351.47
2019-02-21T21:07:43.956Z,357.87
2019-02-21T21:10:16.514Z,347.77
2019-02-21T21:12:45.360Z,310.27
2019-02-21T21:15:15.375Z,369.63
2019-02-21T21:17:45.761Z,420.73
2019-02-21T21:20:17.257Z,394.33
2019-02-21T21:22:46.528Z,374.10
2019-02-21T21:25:18.793Z,432.90
2019-02-21T21:27:49.207Z,389.27
2019-02-21T21:30:18.721Z,341.77
2019-02-21T21:32:47.552Z,271.33
2019-02-21T21:35:16.406Z,309.20
2019-02-21T21:37:45.283Z,333.07
2019-02-21T21:40:18.693Z,346.03
2019-02-21T21:42:47.553Z,356.60
2019-02-21T21:45:18.019Z,366.43
2019-02-21T21:47:46.894Z,394.27
2019-02-21T21:50:19.781Z,369.63
2019-02-21T21:52:48.676Z,400.17
2019-02-21T21:55:17.528Z,415.83
2019-02-21T21:57:46.409Z,422.37
2019-02-21T22:00:23.563Z,389.90
2019-02-21T22:02:53.068Z,401.57
2019-02-21T22:05:21.943Z,378.93
2019-02-21T22:07:51.469Z,406.77
2019-02-21T22:10:20.343Z,426.67
2019-02-21T22:12:49.298Z,376.90
2019-02-21T22:15:19.800Z,429.17
2019-02-21T22:17:48.647Z,456.00
2019-02-21T22:20:17.484Z,464.43
2019-02-21T22:22:47.539Z,495.40
2019-02-21T22:25:16.416Z,485.60
2019-02-21T22:27:45.253Z,517.90
2019-02-21T22:30:16.447Z,487.40
2019-02-21T22:32:45.303Z,515.77
2019-02-21T22:35:14.177Z,515.87
2019-02-21T22:37:43.169Z,514.77
2019-02-21T22:40:16.924Z,534.00
2019-02-21T22:42:45.758Z,502.20
2019-02-21T22:45:15.109Z,479.90
2019-02-21T22:47:43.968Z,499.80
2019-02-21T22:50:20.133Z,499.57
2019-02-21T22:52:49.032Z,503.70
2019-02-21T22:55:17.870Z,496.57
2019-02-21T22:57:46.770Z,469.50
2019-02-21T23:00:50.336Z,463.53
2019-02-21T23:03:19.295Z,407.90
2019-02-21T23:06:02.989Z,441.60
2019-02-21T23:08:40.720Z,425.40
2019-02-21T23:11:09.708Z,415.57
2019-02-21T23:13:38.553Z,380.27
2019-02-21T23:16:07.557Z,391.17
2019-02-21T23:18:36.476Z,515.03
2019-02-21T23:21:05.729Z,535.17
2019-02-21T23:23:34.720Z,599.20
2019-02-21T23:26:03.610Z,617.80
2019-02-21T23:28:32.455Z,660.53
2019-02-21T23:31:01.352Z,698.90
2019-02-21T23:33:31.613Z,670.87
2019-02-21T23:36:00.445Z,478.77
2019-02-21T23:38:29.552Z,375.60
2019-02-21T23:40:58.377Z,383.90
2019-02-21T23:43:27.179Z,388.93
2019-02-21T23:45:56.293Z,396.67
2019-02-21T23:48:25.105Z,407.43
2019-02-21T23:50:53.959Z,414.00
2019-02-21T23:53:22.843Z,407.63
2019-02-21T23:55:51.683Z,402.43
2019-02-21T23:58:20.552Z,435.50
